createdAt,value
2018-07-05T00:01:40.700Z,4.63
2018-07-05T00:04:20.341Z,5.10
2018-07-05T00:06:59.872Z,4.43
2018-07-05T00:09:40.447Z,4.30
2018-07-05T00:12:20.159Z,4.13
2018-07-05T00:14:59.693Z,4.33
2018-07-05T00:17:39.386Z,4.67
2018-07-05T00:20:18.955Z,4.70
2018-07-05T00:22:58.465Z,4.60
2018-07-05T00:25:38.007Z,4.30
2018-07-05T00:28:17.567Z,5.10
2018-07-05T00:30:57.003Z,4.97
2018-07-05T00:33:36.651Z,5.17
2018-07-05T00:36:16.186Z,4.50
2018-07-05T00:38:55.939Z,4.50
2018-07-05T00:41:35.369Z,5.23
2018-07-05T00:44:14.823Z,4.37
2018-07-05T00:46:54.269Z,5.07
2018-07-05T00:49:33.822Z,5.00
2018-07-05T00:52:13.457Z,4.90
2018-07-05T00:54:53.034Z,4.20
2018-07-05T00:57:32.607Z,4.77
2018-07-05T01:00:12.273Z,5.40
2018-07-05T01:02:51.812Z,5.23
2018-07-05T01:05:31.330Z,5.07
2018-07-05T01:08:10.972Z,4.53
2018-07-05T01:10:50.519Z,4.30
2018-07-05T01:13:29.983Z,5.07
2018-07-05T01:16:09.494Z,5.10
2018-07-05T01:18:49.043Z,5.00
2018-07-05T01:21:28.646Z,4.20
2018-07-05T01:24:08.186Z,5.10
2018-07-05T01:26:47.873Z,4.20
2018-07-05T01:29:27.424Z,4.70
2018-07-05T01:32:06.993Z,5.77
2018-07-05T01:34:46.999Z,5.10
2018-07-05T01:37:26.525Z,5.50
2018-07-05T01:40:06.160Z,5.40
2018-07-05T01:42:45.599Z,4.97
2018-07-05T01:45:25.121Z,5.30
2018-07-05T01:48:04.790Z,5.37
2018-07-05T01:50:44.457Z,5.50
2018-07-05T01:53:23.891Z,5.03
2018-07-05T01:56:03.549Z,5.20
2018-07-05T01:58:43.706Z,5.60
2018-07-05T02:01:23.375Z,5.07
2018-07-05T02:04:02.974Z,5.60
2018-07-05T02:06:42.440Z,5.33
2018-07-05T02:09:21.927Z,5.70
2018-07-05T02:12:01.496Z,4.63
2018-07-05T02:14:41.056Z,6.73
2018-07-05T02:17:20.568Z,5.37
2018-07-05T02:20:00.157Z,5.40
2018-07-05T02:22:39.668Z,5.00
2018-07-05T02:25:19.218Z,5.30
2018-07-05T02:27:58.762Z,5.17
2018-07-05T02:30:38.201Z,5.40
2018-07-05T02:33:17.772Z,5.03
2018-07-05T02:35:57.296Z,5.30
2018-07-05T02:38:36.725Z,4.83
2018-07-05T02:41:16.278Z,4.90
2018-07-05T02:43:55.906Z,4.83
2018-07-05T02:46:35.550Z,4.60
2018-07-05T02:49:15.102Z,4.53
2018-07-05T02:51:54.545Z,5.40
2018-07-05T02:54:34.261Z,4.90
2018-07-05T02:57:13.966Z,4.80
2018-07-05T02:59:54.514Z,4.67
2018-07-05T03:02:34.035Z,5.00
2018-07-05T03:05:13.518Z,4.60
2018-07-05T03:07:53.050Z,4.47
2018-07-05T03:10:32.538Z,4.73
2018-07-05T03:13:12.089Z,4.83
2018-07-05T03:15:51.532Z,3.97
2018-07-05T03:18:31.048Z,4.67
2018-07-05T03:21:10.714Z,5.60
2018-07-05T03:23:50.248Z,4.80
2018-07-05T03:26:29.747Z,4.90
2018-07-05T03:29:09.283Z,4.80
2018-07-05T03:31:48.815Z,4.43
2018-07-05T03:34:28.348Z,4.50
2018-07-05T03:37:07.861Z,4.30
2018-07-05T03:39:47.325Z,4.87
2018-07-05T03:45:22.459Z,4.23
2018-07-05T03:48:01.981Z,4.80
2018-07-05T03:56:00.134Z,4.70
2018-07-05T03:58:39.725Z,4.57
2018-07-05T04:01:19.422Z,5.17
2018-07-05T04:03:59.105Z,4.20
2018-07-05T04:06:38.610Z,4.73
2018-07-05T04:09:18.449Z,4.63
2018-07-05T04:11:58.001Z,4.47
2018-07-05T04:14:37.424Z,4.77
2018-07-05T04:17:16.854Z,4.60
2018-07-05T05:42:05.436Z,3.70
2018-07-05T05:44:46.061Z,3.97
2018-07-05T05:47:25.709Z,3.80
2018-07-05T05:50:05.344Z,3.77
2018-07-05T05:52:44.901Z,4.17
2018-07-05T05:55:24.282Z,3.63
2018-07-05T05:58:03.919Z,3.73
2018-07-05T06:00:43.329Z,4.10
2018-07-05T06:03:22.817Z,3.50
2018-07-05T06:06:02.381Z,3.80
2018-07-05T06:08:41.858Z,3.50
2018-07-05T06:11:21.462Z,3.97
2018-07-05T06:14:00.965Z,3.80
2018-07-05T06:16:40.465Z,3.23
2018-07-05T06:19:20.023Z,3.80
2018-07-05T06:21:59.499Z,3.87
2018-07-05T06:24:39.145Z,6.03
2018-07-05T06:27:18.629Z,8.03
2018-07-05T06:29:58.295Z,7.40
2018-07-05T06:32:37.819Z,6.30
2018-07-05T06:35:17.342Z,6.67
2018-07-05T06:37:56.851Z,6.80
2018-07-05T06:40:36.489Z,6.20
2018-07-05T06:43:16.173Z,6.10
2018-07-05T06:45:55.741Z,6.63
2018-07-05T06:48:35.285Z,6.07
2018-07-05T06:51:14.794Z,5.90
2018-07-05T06:53:54.534Z,5.50
2018-07-05T06:56:34.109Z,6.13
2018-07-05T06:59:14.008Z,5.53
2018-07-05T07:01:53.638Z,5.13
2018-07-05T07:04:33.142Z,6.07
2018-07-05T07:07:12.848Z,6.00
2018-07-05T07:09:52.352Z,4.77
2018-07-05T07:12:31.951Z,5.00
2018-07-05T07:15:11.532Z,4.70
2018-07-05T07:17:51.174Z,4.17
2018-07-05T07:20:30.719Z,4.90
2018-07-05T07:23:10.318Z,4.87
2018-07-05T07:25:49.785Z,4.57
2018-07-05T07:28:30.182Z,4.93
2018-07-05T07:31:09.803Z,5.87
2018-07-05T07:33:49.353Z,4.60
2018-07-05T07:36:28.854Z,4.50
2018-07-05T07:39:08.320Z,4.73
2018-07-05T07:41:45.676Z,5.60
2018-07-05T07:44:13.060Z,4.67
2018-07-05T07:46:40.421Z,4.43
2018-07-05T07:49:07.762Z,3.90
2018-07-05T07:51:35.098Z,4.40
2018-07-05T07:54:02.454Z,4.00
2018-07-05T07:56:29.793Z,4.50
2018-07-05T07:58:57.104Z,3.73
2018-07-05T08:01:24.610Z,3.77
2018-07-05T08:03:51.914Z,4.33
2018-07-05T08:06:19.340Z,3.73
2018-07-05T08:08:46.734Z,3.60
2018-07-05T08:11:14.070Z,3.63
2018-07-05T08:13:41.413Z,4.07
2018-07-05T08:16:08.761Z,3.90
2018-07-05T08:18:36.066Z,4.37
2018-07-05T08:21:03.417Z,4.10
2018-07-05T08:23:30.738Z,3.87
2018-07-05T08:25:58.134Z,3.27
2018-07-05T08:28:25.449Z,3.47
2018-07-05T08:30:52.801Z,3.37
2018-07-05T08:33:20.195Z,3.30
2018-07-05T08:35:47.511Z,3.00
2018-07-05T08:38:14.840Z,2.93
2018-07-05T08:40:42.134Z,3.10
2018-07-05T08:43:09.526Z,3.57
2018-07-05T08:45:36.824Z,3.50
2018-07-05T08:48:04.198Z,3.50
2018-07-05T08:50:31.532Z,2.97
2018-07-05T08:52:58.821Z,3.53
2018-07-05T08:55:26.141Z,3.40
2018-07-05T08:57:53.472Z,3.20
2018-07-05T09:00:20.776Z,2.97
2018-07-05T09:02:48.098Z,3.00
2018-07-05T09:05:15.424Z,2.83
2018-07-05T09:07:42.925Z,2.90
2018-07-05T09:10:10.238Z,5.67
2018-07-05T09:12:37.555Z,4.37
2018-07-05T09:15:04.872Z,3.10
2018-07-05T09:17:32.294Z,3.03
2018-07-05T09:19:59.688Z,3.63
2018-07-05T09:22:27.012Z,3.00
2018-07-05T09:24:54.317Z,3.50
2018-07-05T09:27:21.677Z,3.50
2018-07-05T09:29:48.982Z,3.00
2018-07-05T09:32:16.280Z,3.87
2018-07-05T09:34:43.647Z,3.87
2018-07-05T09:37:11.027Z,3.73
2018-07-05T09:39:38.347Z,3.77
2018-07-05T09:42:05.666Z,3.40
2018-07-05T09:44:32.964Z,3.53
2018-07-05T09:47:00.310Z,3.30
2018-07-05T09:49:27.646Z,3.17
2018-07-05T09:51:54.968Z,3.10
2018-07-05T09:54:22.259Z,3.10
2018-07-05T09:56:49.647Z,2.97
2018-07-05T09:59:16.972Z,3.40
2018-07-05T10:01:44.365Z,3.67
2018-07-05T10:04:11.698Z,2.90
2018-07-05T10:06:38.972Z,2.90
2018-07-05T10:09:06.487Z,3.17
2018-07-05T10:11:34.072Z,3.57
2018-07-05T10:14:01.431Z,3.00
2018-07-05T10:16:29.012Z,2.70
2018-07-05T10:18:56.443Z,3.13
2018-07-05T10:21:25.886Z,2.97
2018-07-05T10:23:53.680Z,3.00
2018-07-05T10:26:21.030Z,3.30
2018-07-05T10:29:00.728Z,3.20
2018-07-05T10:31:40.406Z,3.37
2018-07-05T10:34:07.762Z,3.37
2018-07-05T10:36:35.058Z,2.47
2018-07-05T10:39:02.383Z,2.93
2018-07-05T10:41:41.805Z,3.10
2018-07-05T10:44:21.345Z,2.70
2018-07-05T10:47:01.058Z,2.80
2018-07-05T10:49:40.627Z,3.10
2018-07-05T10:52:20.147Z,2.90
2018-07-05T10:54:59.697Z,3.13
2018-07-05T10:57:40.258Z,3.93
2018-07-05T11:00:19.791Z,3.23
2018-07-05T11:02:59.227Z,3.40
2018-07-05T11:05:39.015Z,3.53
2018-07-05T11:08:18.547Z,3.20
2018-07-05T11:10:58.774Z,3.47
2018-07-05T11:13:38.345Z,3.50
2018-07-05T11:16:17.856Z,3.30
2018-07-05T11:18:57.394Z,3.77
2018-07-05T11:21:36.966Z,3.80
2018-07-05T11:24:16.471Z,4.00
2018-07-05T11:26:56.147Z,3.80
2018-07-05T11:29:35.684Z,3.53
2018-07-05T11:32:15.407Z,3.40
2018-07-05T11:34:54.969Z,3.70
2018-07-05T11:37:35.283Z,3.30
2018-07-05T11:40:14.951Z,3.53
2018-07-05T11:42:54.509Z,3.23
2018-07-05T11:45:34.065Z,3.50
2018-07-05T11:48:13.586Z,3.60
2018-07-05T11:50:53.157Z,3.30
2018-07-05T11:53:32.887Z,3.70
2018-07-05T11:56:13.141Z,3.70
2018-07-05T11:58:52.674Z,4.00
2018-07-05T12:01:32.207Z,3.80
2018-07-05T12:04:11.943Z,4.13
2018-07-05T12:06:51.322Z,3.87
2018-07-05T12:09:30.797Z,3.37
2018-07-05T12:12:10.302Z,3.53
2018-07-05T12:14:50.013Z,3.30
2018-07-05T12:17:29.586Z,3.27
2018-07-05T12:20:09.164Z,3.43
2018-07-05T12:22:48.656Z,3.40
2018-07-05T12:25:28.457Z,2.97
2018-07-05T12:28:08.069Z,3.23
2018-07-05T12:30:47.635Z,3.37
2018-07-05T12:33:27.563Z,3.20
2018-07-05T12:45:48.649Z,3.60
2018-07-05T12:48:29.520Z,3.33
2018-07-05T12:51:09.881Z,3.37
2018-07-05T12:53:49.361Z,3.40
2018-07-05T12:56:29.472Z,3.30
2018-07-05T12:59:09.035Z,3.43
2018-07-05T13:01:48.766Z,3.10
2018-07-05T13:04:28.293Z,3.63
2018-07-05T13:07:08.104Z,3.20
2018-07-05T13:09:47.630Z,3.40
2018-07-05T13:12:27.290Z,3.73
2018-07-05T13:15:06.890Z,3.03
2018-07-05T13:17:46.476Z,3.37
2018-07-05T13:20:26.104Z,3.77
2018-07-05T13:23:05.599Z,2.73
2018-07-05T13:25:45.149Z,3.30
2018-07-05T13:28:24.608Z,3.37
2018-07-05T13:31:04.049Z,2.93
2018-07-05T13:33:43.722Z,3.80
2018-07-05T13:36:23.234Z,3.53
2018-07-05T13:39:03.008Z,3.40
2018-07-05T13:41:42.649Z,3.57
2018-07-05T13:44:22.198Z,4.10
2018-07-05T13:47:01.811Z,3.70
2018-07-05T13:49:41.437Z,3.83
2018-07-05T13:52:20.959Z,3.97
2018-07-05T13:55:00.645Z,3.50
2018-07-05T13:57:40.182Z,4.10
2018-07-05T14:00:19.814Z,3.70
2018-07-05T14:03:00.255Z,3.10
2018-07-05T14:05:39.718Z,2.60
2018-07-05T14:08:19.245Z,3.60
2018-07-05T14:10:58.872Z,3.40
2018-07-05T14:13:38.627Z,3.60
2018-07-05T14:16:18.136Z,3.87
2018-07-05T14:18:57.664Z,3.10
2018-07-05T14:21:37.225Z,2.70
2018-07-05T14:24:16.790Z,2.87
2018-07-05T14:26:56.318Z,3.03
2018-07-05T14:29:35.865Z,2.70
2018-07-05T14:32:15.293Z,2.52
2018-07-05T14:34:54.842Z,2.90
2018-07-05T14:37:34.362Z,2.17
2018-07-05T14:40:14.075Z,2.62
2018-07-05T14:42:54.872Z,3.37
2018-07-05T14:45:34.385Z,3.10
2018-07-05T14:48:13.934Z,3.90
2018-07-05T14:50:53.436Z,3.70
2018-07-05T14:53:33.822Z,3.70
2018-07-05T14:56:13.344Z,3.22
2018-07-05T14:58:52.952Z,3.42
2018-07-05T15:01:33.020Z,3.25
2018-07-05T15:04:12.691Z,3.27
2018-07-05T15:06:52.084Z,3.27
2018-07-05T15:09:31.654Z,3.20
2018-07-05T15:12:11.316Z,2.87
2018-07-05T15:14:50.858Z,3.17
2018-07-05T15:17:30.376Z,2.77
2018-07-05T15:20:09.902Z,2.90
2018-07-05T15:22:49.606Z,2.98
2018-07-05T15:25:29.226Z,2.77
2018-07-05T15:28:08.867Z,2.70
2018-07-05T15:30:48.378Z,3.08
2018-07-05T15:33:28.018Z,3.33
2018-07-05T15:36:07.521Z,2.95
2018-07-05T15:38:47.174Z,3.20
2018-07-05T15:41:26.702Z,3.65
2018-07-05T15:44:06.106Z,3.70
2018-07-05T15:46:45.710Z,3.13
2018-07-05T15:49:25.215Z,2.83
2018-07-05T15:52:04.653Z,2.87
2018-07-05T15:54:44.200Z,2.70
2018-07-05T15:57:23.722Z,2.52
2018-07-05T16:00:03.227Z,2.70
2018-07-05T16:02:42.736Z,3.10
2018-07-05T16:05:22.302Z,2.58
2018-07-05T16:08:01.839Z,2.95
2018-07-05T16:10:41.393Z,2.65
2018-07-05T16:13:20.932Z,3.10
2018-07-05T16:16:00.509Z,2.60
2018-07-05T16:18:40.064Z,3.22
2018-07-05T16:21:19.538Z,3.15
2018-07-05T16:23:59.072Z,3.47
2018-07-05T16:26:38.661Z,3.50
2018-07-05T16:29:18.897Z,2.93
2018-07-05T16:31:58.368Z,2.73
2018-07-05T16:34:37.989Z,3.00
2018-07-05T16:37:17.640Z,3.37
2018-07-05T16:39:57.217Z,3.60
2018-07-05T16:42:36.732Z,3.73
2018-07-05T16:45:16.390Z,3.93
2018-07-05T16:47:55.887Z,3.60
2018-07-05T16:50:35.957Z,3.63
2018-07-05T16:53:15.459Z,5.07
2018-07-05T16:55:55.020Z,3.50
2018-07-05T16:58:36.247Z,3.57
2018-07-05T17:01:16.130Z,4.47
2018-07-05T17:03:55.815Z,4.53
2018-07-05T17:06:35.469Z,3.83
2018-07-05T17:09:15.152Z,3.83
2018-07-05T17:11:55.151Z,3.90
2018-07-05T17:14:35.294Z,4.33
2018-07-05T17:17:14.791Z,4.53
2018-07-05T17:19:54.298Z,5.33
2018-07-05T17:22:33.885Z,5.00
2018-07-05T17:25:13.420Z,4.00
2018-07-05T17:27:52.976Z,3.83
2018-07-05T17:30:32.543Z,4.53
2018-07-05T17:33:12.147Z,4.27
2018-07-05T17:35:51.684Z,4.70
2018-07-05T17:38:31.281Z,4.07
2018-07-05T17:41:10.921Z,4.00
2018-07-05T17:43:50.486Z,3.90
2018-07-05T17:46:30.011Z,4.00
2018-07-05T17:49:09.525Z,4.10
2018-07-05T17:51:49.631Z,3.70
2018-07-05T17:54:29.358Z,4.20
2018-07-05T17:57:09.057Z,4.37
2018-07-05T17:59:48.590Z,4.80
2018-07-05T18:02:28.134Z,4.80
2018-07-05T18:05:07.701Z,4.43
2018-07-05T18:07:47.508Z,5.43
2018-07-05T18:10:27.359Z,4.57
2018-07-05T18:13:07.054Z,4.57
2018-07-05T18:15:46.689Z,5.47
2018-07-05T18:18:26.249Z,4.67
2018-07-05T18:21:05.868Z,4.40
2018-07-05T18:23:45.442Z,5.10
2018-07-05T18:26:25.227Z,5.13
2018-07-05T18:29:04.819Z,4.70
2018-07-05T18:31:45.535Z,4.47
2018-07-05T18:34:25.071Z,5.47
2018-07-05T18:37:04.547Z,4.80
2018-07-05T18:39:44.476Z,4.23
2018-07-05T18:42:24.003Z,4.40
2018-07-05T18:45:03.442Z,6.00
2018-07-05T18:47:43.356Z,5.40
2018-07-05T18:50:22.830Z,4.97
2018-07-05T18:53:02.324Z,5.30
2018-07-05T18:55:41.882Z,5.30
2018-07-05T18:58:21.336Z,5.33
2018-07-05T19:01:00.714Z,5.27
2018-07-05T19:03:40.241Z,5.00
2018-07-05T19:06:19.742Z,5.13
2018-07-05T19:08:59.279Z,5.70
2018-07-05T19:11:39.774Z,5.27
2018-07-05T19:14:19.247Z,5.77
2018-07-05T19:16:58.650Z,5.20
2018-07-05T19:19:38.601Z,5.37
2018-07-05T19:22:18.574Z,5.30
2018-07-05T19:24:58.306Z,5.67
2018-07-05T19:27:38.122Z,5.20
2018-07-05T19:30:18.223Z,5.40
2018-07-05T19:32:58.054Z,5.17
2018-07-05T19:35:38.435Z,4.83
2018-07-05T19:38:18.030Z,4.30
2018-07-05T19:40:57.681Z,4.80
2018-07-05T19:43:37.082Z,5.10
2018-07-05T19:46:16.957Z,4.33
2018-07-05T19:48:56.542Z,4.77
2018-07-05T19:51:36.136Z,5.43
2018-07-05T19:54:15.714Z,5.90
2018-07-05T19:56:55.308Z,5.83
2018-07-05T19:59:34.721Z,6.13
2018-07-05T20:02:14.282Z,6.37
2018-07-05T20:04:53.830Z,7.20
2018-07-05T20:07:33.477Z,7.00
2018-07-05T20:10:13.029Z,6.77
2018-07-05T20:12:52.519Z,7.77
2018-07-05T20:15:32.035Z,6.27
2018-07-05T20:18:11.744Z,6.10
2018-07-05T20:20:51.312Z,5.97
2018-07-05T20:23:30.822Z,5.97
2018-07-05T20:26:10.399Z,6.87
2018-07-05T20:28:50.070Z,6.13
2018-07-05T20:31:29.479Z,6.40
2018-07-05T20:34:09.024Z,6.90
2018-07-05T20:36:48.703Z,6.00
2018-07-05T20:39:28.222Z,6.70
2018-07-05T20:42:07.719Z,5.90
2018-07-05T20:44:47.205Z,6.30
2018-07-05T20:47:26.797Z,6.30
2018-07-05T20:50:06.215Z,6.70
2018-07-05T20:52:45.793Z,6.43
2018-07-05T20:55:25.357Z,5.63
2018-07-05T20:58:04.900Z,5.70
2018-07-05T21:00:44.473Z,5.27
2018-07-05T21:03:23.886Z,5.80
2018-07-05T21:06:04.438Z,5.15
2018-07-05T21:08:44.020Z,5.47
2018-07-05T21:11:23.663Z,5.23
2018-07-05T21:14:03.358Z,5.53
2018-07-05T21:16:42.918Z,5.00
2018-07-05T21:19:22.458Z,5.00
2018-07-05T21:22:03.141Z,4.70
2018-07-05T21:24:42.757Z,5.00
2018-07-05T21:27:22.473Z,5.17
2018-07-05T21:30:02.126Z,5.00
2018-07-05T21:32:41.688Z,4.77
2018-07-05T21:35:21.139Z,3.90
2018-07-05T21:38:00.666Z,4.60
2018-07-05T21:40:40.234Z,3.97
2018-07-05T21:43:19.876Z,3.83
2018-07-05T21:45:59.421Z,3.77
2018-07-05T21:48:38.906Z,4.37
2018-07-05T21:51:18.456Z,3.87
2018-07-05T21:53:58.017Z,3.60
2018-07-05T21:56:37.551Z,4.33
2018-07-05T21:59:17.068Z,4.10
2018-07-05T22:01:56.608Z,4.37
2018-07-05T22:04:36.104Z,4.07
2018-07-05T22:07:15.846Z,4.57
2018-07-05T22:09:55.330Z,4.90
2018-07-05T22:12:34.729Z,4.77
2018-07-05T22:15:14.215Z,5.70
2018-07-05T22:17:58.981Z,5.40
2018-07-05T22:20:43.846Z,5.93
2018-07-05T22:23:28.526Z,5.83
2018-07-05T22:26:13.218Z,6.10
2018-07-05T22:28:57.867Z,6.20
2018-07-05T22:31:37.282Z,6.43
2018-07-05T22:34:16.850Z,6.37
2018-07-05T22:36:56.375Z,6.40
2018-07-05T22:39:35.880Z,5.90
2018-07-05T22:42:15.452Z,6.70
2018-07-05T22:44:55.011Z,7.13
2018-07-05T22:47:34.531Z,6.63
2018-07-05T22:50:14.295Z,7.17
2018-07-05T22:52:53.841Z,5.67
2018-07-05T22:55:33.574Z,6.03
2018-07-05T22:58:13.110Z,6.90
2018-07-05T23:00:52.551Z,5.93
2018-07-05T23:03:32.009Z,5.90
2018-07-05T23:06:11.641Z,6.40
2018-07-05T23:08:51.093Z,5.90
2018-07-05T23:11:30.610Z,5.50
2018-07-05T23:14:10.028Z,5.80
2018-07-05T23:16:49.546Z,5.77
2018-07-05T23:19:29.141Z,6.00
2018-07-05T23:22:08.703Z,5.80
2018-07-05T23:24:48.214Z,4.97
2018-07-05T23:27:27.685Z,6.07
2018-07-05T23:30:07.402Z,5.10
2018-07-05T23:32:47.006Z,5.40
2018-07-05T23:35:26.434Z,5.90
2018-07-05T23:38:05.925Z,6.23
2018-07-05T23:40:45.355Z,6.10
2018-07-05T23:43:24.924Z,5.67
2018-07-05T23:46:04.440Z,6.23
2018-07-05T23:48:43.957Z,5.60
2018-07-05T23:51:23.364Z,6.47
2018-07-05T23:54:03.002Z,5.83
2018-07-05T23:56:42.419Z,6.00
2018-07-05T23:59:21.894Z,6.20
